createdAt,value
2023-01-12T00:01:16.003Z,-0.55
2023-01-12T00:04:18.335Z,-0.50
2023-01-12T00:07:21.290Z,-0.44
2023-01-12T00:10:22.861Z,-0.39
2023-01-12T00:13:24.574Z,-0.38
2023-01-12T00:16:27.509Z,-0.36
2023-01-12T00:19:29.185Z,-0.35
2023-01-12T00:22:30.911Z,-0.33
2023-01-12T00:25:32.429Z,-0.30
2023-01-12T00:28:35.238Z,-0.29
2023-01-12T00:31:36.844Z,-0.28
2023-01-12T00:34:38.436Z,-0.27
2023-01-12T00:37:39.982Z,-0.27
2023-01-12T00:40:41.567Z,-0.29
2023-01-12T00:43:43.345Z,-0.32
2023-01-12T00:46:44.835Z,-0.33
2023-01-12T00:49:46.963Z,-0.31
2023-01-12T00:52:48.640Z,-0.28
2023-01-12T00:55:50.246Z,-0.27
2023-01-12T00:58:51.872Z,-0.27
2023-01-12T01:01:53.505Z,-0.27
2023-01-12T01:04:55.599Z,-0.26
2023-01-12T01:07:57.724Z,-0.24
2023-01-12T01:11:06.754Z,-0.21
2023-01-12T01:14:08.859Z,-0.21
2023-01-12T01:17:10.753Z,-0.22
2023-01-12T01:20:12.700Z,-0.20
2023-01-12T01:23:14.439Z,-0.16
2023-01-12T01:26:19.671Z,-0.10
2023-01-12T01:29:21.211Z,-0.04
2023-01-12T01:32:23.223Z,0.02
2023-01-12T01:35:24.837Z,0.08
2023-01-12T01:38:26.870Z,0.15
2023-01-12T01:41:33.114Z,0.20
2023-01-12T01:44:43.621Z,0.23
2023-01-12T01:47:51.632Z,0.26
2023-01-12T01:50:59.578Z,0.25
2023-01-12T01:54:03.410Z,0.26
2023-01-12T01:57:06.161Z,0.25
2023-01-12T02:00:09.799Z,0.26
2023-01-12T02:03:12.045Z,0.26
2023-01-12T02:06:14.518Z,0.25
2023-01-12T02:09:23.103Z,0.26
2023-01-12T02:12:24.795Z,0.33
2023-01-12T02:15:28.872Z,0.42
2023-01-12T02:18:39.629Z,0.52
2023-01-12T02:22:10.822Z,0.63
2023-01-12T02:25:44.087Z,0.71
2023-01-12T02:29:09.208Z,0.78
2023-01-12T02:32:29.303Z,0.86
2023-01-12T02:35:49.284Z,0.94
2023-01-12T02:39:14.340Z,1.00
2023-01-12T02:42:40.484Z,1.04
2023-01-12T02:45:55.236Z,1.06
2023-01-12T02:49:03.097Z,1.09
2023-01-12T02:52:09.243Z,1.13
2023-01-12T02:55:13.217Z,1.16
2023-01-12T02:58:17.529Z,1.18
2023-01-12T03:01:20.167Z,1.23
2023-01-12T03:04:23.290Z,1.29
2023-01-12T03:07:28.996Z,1.32
2023-01-12T03:10:41.943Z,1.31
2023-01-12T03:13:47.780Z,1.29
2023-01-12T03:16:50.151Z,1.28
2023-01-12T03:19:53.480Z,1.26
2023-01-12T03:23:01.154Z,1.23
2023-01-12T03:26:03.568Z,1.22
2023-01-12T03:29:26.194Z,1.27
2023-01-12T03:32:28.100Z,1.31
2023-01-12T03:35:33.108Z,1.31
2023-01-12T03:38:50.693Z,1.31
2023-01-12T03:42:04.073Z,1.34
2023-01-12T03:45:18.519Z,1.34
2023-01-12T03:48:46.867Z,1.34
2023-01-12T03:51:49.281Z,1.35
2023-01-12T03:54:52.592Z,1.39
2023-01-12T03:57:54.298Z,1.43
2023-01-12T04:00:55.891Z,1.43
2023-01-12T04:03:57.505Z,1.41
2023-01-12T04:07:01.075Z,1.40
2023-01-12T04:10:03.570Z,1.45
2023-01-12T04:13:05.268Z,1.51
2023-01-12T04:16:06.918Z,1.56
2023-01-12T04:19:08.826Z,1.60
2023-01-12T04:22:14.768Z,1.61
2023-01-12T04:25:22.792Z,1.63
2023-01-12T04:28:24.488Z,1.66
2023-01-12T04:31:26.097Z,1.72
2023-01-12T04:34:27.666Z,1.75
2023-01-12T04:37:32.512Z,1.79
2023-01-12T04:40:34.173Z,1.81
2023-01-12T04:43:35.889Z,1.84
2023-01-12T04:46:37.492Z,1.84
2023-01-12T04:49:39.126Z,1.82
2023-01-12T04:52:40.794Z,1.81
2023-01-12T04:55:43.424Z,1.79
2023-01-12T04:58:45.865Z,1.78
2023-01-12T05:01:47.546Z,1.78
2023-01-12T05:04:49.451Z,1.78
2023-01-12T05:07:51.088Z,1.78
2023-01-12T05:10:54.534Z,1.78
2023-01-12T05:13:57.114Z,1.79
2023-01-12T05:16:58.834Z,1.80
2023-01-12T05:20:01.016Z,1.81
2023-01-12T05:23:02.941Z,1.80
2023-01-12T05:26:05.233Z,1.78
2023-01-12T05:29:08.055Z,1.70
2023-01-12T05:32:09.673Z,1.68
2023-01-12T05:35:11.388Z,1.70
2023-01-12T05:38:12.994Z,1.72
2023-01-12T05:41:14.694Z,1.79
2023-01-12T05:44:16.359Z,1.83
2023-01-12T05:47:18.337Z,1.79
2023-01-12T05:50:19.914Z,1.56
2023-01-12T05:53:21.896Z,1.25
2023-01-12T05:56:26.186Z,1.13
2023-01-12T06:02:47.088Z,1.01
2023-01-12T06:05:55.283Z,0.97
2023-01-12T06:08:58.184Z,0.98
2023-01-12T06:11:59.793Z,0.98
2023-01-12T06:15:01.461Z,1.04
2023-01-12T06:18:03.077Z,1.14
2023-01-12T06:21:05.817Z,1.18
2023-01-12T06:24:07.689Z,1.29
2023-01-12T06:27:09.436Z,1.32
2023-01-12T06:30:11.867Z,1.45
2023-01-12T06:33:13.419Z,1.58
2023-01-12T06:36:14.965Z,1.72
2023-01-12T06:39:16.566Z,1.85
2023-01-12T06:42:18.231Z,1.96
2023-01-12T06:45:19.764Z,2.04
2023-01-12T06:48:21.724Z,2.12
2023-01-12T06:51:23.521Z,2.19
2023-01-12T06:54:25.283Z,2.26
2023-01-12T06:57:26.766Z,2.35
2023-01-12T07:00:28.394Z,2.45
2023-01-12T07:03:30.394Z,2.55
2023-01-12T07:06:32.017Z,2.63
2023-01-12T07:09:34.013Z,2.71
2023-01-12T07:12:35.676Z,2.77
2023-01-12T07:15:37.239Z,2.82
2023-01-12T07:18:38.927Z,2.90
2023-01-12T07:21:40.543Z,2.98
2023-01-12T07:24:42.239Z,3.06
2023-01-12T07:27:50.617Z,3.14
2023-01-12T07:30:52.378Z,3.23
2023-01-12T07:33:55.101Z,3.31
2023-01-12T07:36:57.862Z,3.39
2023-01-12T07:39:59.405Z,3.45
2023-01-12T07:43:02.780Z,3.54
2023-01-12T07:46:04.659Z,3.60
2023-01-12T07:49:06.321Z,3.67
2023-01-12T07:52:11.262Z,3.73
2023-01-12T07:55:13.308Z,3.82
2023-01-12T07:58:14.868Z,3.94
2023-01-12T08:01:16.749Z,4.09
2023-01-12T08:04:18.374Z,4.25
2023-01-12T08:07:23.303Z,4.41
2023-01-12T08:10:25.201Z,4.49
2023-01-12T08:13:26.838Z,4.55
2023-01-12T08:16:33.095Z,4.58
2023-01-12T08:19:42.727Z,4.60
2023-01-12T08:22:47.819Z,4.60
2023-01-12T08:25:54.985Z,4.59
2023-01-12T08:29:02.234Z,4.63
2023-01-12T08:32:05.759Z,4.68
2023-01-12T08:35:08.237Z,4.70
2023-01-12T08:38:10.011Z,4.71
2023-01-12T08:41:11.598Z,4.74
2023-01-12T08:44:13.043Z,4.80
2023-01-12T08:47:18.206Z,4.91
2023-01-12T08:50:19.993Z,5.02
2023-01-12T08:53:21.601Z,5.16
2023-01-12T08:56:23.250Z,5.28
2023-01-12T08:59:24.916Z,5.39
2023-01-12T09:02:26.739Z,5.53
2023-01-12T09:05:28.299Z,5.63
2023-01-12T09:08:29.929Z,5.72
2023-01-12T09:11:31.558Z,5.80
2023-01-12T09:14:36.326Z,5.91
2023-01-12T09:17:37.883Z,6.03
2023-01-12T09:20:39.397Z,6.17
2023-01-12T09:23:42.027Z,6.26
2023-01-12T09:26:45.966Z,6.31
2023-01-12T09:29:47.619Z,6.34
2023-01-12T09:32:49.221Z,6.43
2023-01-12T09:35:50.865Z,6.57
2023-01-12T09:38:52.637Z,6.79
2023-01-12T09:41:54.317Z,7.04
2023-01-12T09:44:55.939Z,7.26
2023-01-12T09:47:58.389Z,7.41
2023-01-12T09:51:11.963Z,7.46
2023-01-12T09:54:13.559Z,7.36
2023-01-12T09:57:43.032Z,7.19
2023-01-12T10:00:50.159Z,7.04
2023-01-12T10:03:51.820Z,6.94
2023-01-12T10:06:54.594Z,6.84
2023-01-12T10:09:56.666Z,7.07
2023-01-12T10:13:03.109Z,7.45
2023-01-12T10:16:08.217Z,7.89
2023-01-12T10:19:27.311Z,8.59
2023-01-12T10:22:44.157Z,9.09
2023-01-12T10:25:45.803Z,9.58
2023-01-12T10:28:48.613Z,10.25
2023-01-12T10:31:50.315Z,10.99
2023-01-12T10:34:52.532Z,11.66
2023-01-12T10:37:55.990Z,12.28
2023-01-12T10:41:12.144Z,12.87
2023-01-12T10:44:16.027Z,13.34
2023-01-12T10:47:18.410Z,13.64
2023-01-12T10:50:28.878Z,13.90
2023-01-12T10:53:37.646Z,14.25
2023-01-12T10:56:42.174Z,14.10
2023-01-12T10:59:50.942Z,13.69
2023-01-12T11:02:53.004Z,13.55
2023-01-12T11:05:54.779Z,12.94
2023-01-12T11:08:57.104Z,12.38
2023-01-12T11:12:01.027Z,12.40
2023-01-12T11:15:12.072Z,12.22
2023-01-12T11:18:28.789Z,12.23
2023-01-12T11:21:35.405Z,12.36
2023-01-12T11:24:49.618Z,12.38
2023-01-12T11:28:31.384Z,12.34
2023-01-12T11:31:37.914Z,12.01
2023-01-12T11:34:51.803Z,11.03
2023-01-12T11:37:55.018Z,10.38
2023-01-12T11:40:57.615Z,10.10
2023-01-12T11:44:04.025Z,9.89
2023-01-12T11:47:13.470Z,9.57
2023-01-12T11:50:24.140Z,9.32
2023-01-12T11:53:25.996Z,9.15
2023-01-12T11:56:29.127Z,8.97
2023-01-12T11:59:42.664Z,8.90
2023-01-12T12:03:37.215Z,8.79
2023-01-12T12:06:48.984Z,8.71
2023-01-12T12:09:57.654Z,8.68
2023-01-12T12:13:08.384Z,8.70
2023-01-12T12:16:25.109Z,8.71
2023-01-12T12:19:45.688Z,8.73
2023-01-12T12:23:00.844Z,8.82
2023-01-12T12:26:12.019Z,8.78
2023-01-12T12:29:35.354Z,8.78
2023-01-12T12:32:44.057Z,8.71
2023-01-12T12:36:03.899Z,8.66
2023-01-12T12:39:25.740Z,8.64
2023-01-12T12:42:40.839Z,8.64
2023-01-12T12:46:05.822Z,8.68
2023-01-12T12:49:14.534Z,8.79
2023-01-12T12:52:16.282Z,8.85
2023-01-12T12:55:18.046Z,8.89
2023-01-12T12:58:22.705Z,8.90
2023-01-12T13:01:36.235Z,8.80
2023-01-12T13:04:43.839Z,8.68
2023-01-12T13:07:52.099Z,8.65
2023-01-12T13:10:57.889Z,8.76
2023-01-12T13:14:01.342Z,8.87
2023-01-12T13:17:20.447Z,8.90
2023-01-12T13:20:34.546Z,8.95
2023-01-12T13:23:47.590Z,8.96
2023-01-12T13:26:49.203Z,8.97
2023-01-12T13:29:50.967Z,8.98
2023-01-12T13:33:20.428Z,8.95
2023-01-12T13:36:30.764Z,8.91
2023-01-12T13:39:34.957Z,8.86
2023-01-12T13:42:36.755Z,8.84
2023-01-12T13:45:39.570Z,8.83
2023-01-12T13:48:47.739Z,8.86
2023-01-12T13:51:58.717Z,8.89
2023-01-12T13:55:00.564Z,8.87
2023-01-12T13:58:06.116Z,8.76
2023-01-12T14:01:17.551Z,8.55
2023-01-12T14:04:37.892Z,8.36
2023-01-12T14:07:51.624Z,8.18
2023-01-12T14:11:12.312Z,8.09
2023-01-12T14:14:32.921Z,7.98
2023-01-12T14:17:34.653Z,7.82
2023-01-12T14:20:42.046Z,7.67
2023-01-12T14:23:43.713Z,7.52
2023-01-12T14:26:45.521Z,7.41
2023-01-12T14:29:47.189Z,7.33
2023-01-12T14:32:48.969Z,7.23
2023-01-12T14:35:51.428Z,7.09
2023-01-12T14:38:53.903Z,7.07
2023-01-12T14:41:56.549Z,6.97
2023-01-12T14:44:58.211Z,6.77
2023-01-12T14:48:38.732Z,6.63
2023-01-12T14:51:51.726Z,6.47
2023-01-12T14:54:53.468Z,6.36
2023-01-12T14:57:57.161Z,6.23
2023-01-12T15:00:58.821Z,6.01
2023-01-12T15:04:00.788Z,5.78
2023-01-12T15:07:06.433Z,5.56
2023-01-12T15:10:14.579Z,5.51
2023-01-12T15:13:30.776Z,5.39
2023-01-12T15:16:32.463Z,5.18
2023-01-12T15:19:33.930Z,5.04
2023-01-12T15:22:35.497Z,4.90
2023-01-12T15:25:39.400Z,4.81
2023-01-12T15:28:41.009Z,4.74
2023-01-12T15:31:42.569Z,4.57
2023-01-12T15:34:44.100Z,4.49
2023-01-12T15:37:45.670Z,4.37
2023-01-12T15:40:47.638Z,4.23
2023-01-12T15:43:49.329Z,4.16
2023-01-12T15:46:50.878Z,4.10
2023-01-12T15:49:52.404Z,4.04
2023-01-12T15:52:53.934Z,3.96
2023-01-12T15:55:55.484Z,3.88
2023-01-12T15:58:57.074Z,3.80
2023-01-12T16:01:58.984Z,3.72
2023-01-12T16:05:01.550Z,3.70
2023-01-12T16:08:03.358Z,3.61
2023-01-12T16:11:05.366Z,3.49
2023-01-12T16:14:06.869Z,3.38
2023-01-12T16:17:08.749Z,3.37
2023-01-12T16:20:11.130Z,3.38
2023-01-12T16:23:12.806Z,3.38
2023-01-12T16:26:14.265Z,3.39
2023-01-12T16:29:16.052Z,3.36
2023-01-12T16:32:18.616Z,3.27
2023-01-12T16:35:20.261Z,3.30
2023-01-12T16:38:21.779Z,3.35
2023-01-12T16:41:23.403Z,3.35
2023-01-12T16:44:25.019Z,3.34
2023-01-12T16:47:26.776Z,3.30
2023-01-12T16:50:28.279Z,3.19
2023-01-12T16:53:29.900Z,3.07
2023-01-12T16:56:31.512Z,3.01
2023-01-12T16:59:33.170Z,3.01
2023-01-12T17:02:35.209Z,3.06
2023-01-12T17:05:41.225Z,3.03
2023-01-12T17:08:43.203Z,3.00
2023-01-12T17:11:44.925Z,3.02
2023-01-12T17:14:46.578Z,3.10
2023-01-12T17:17:48.975Z,3.13
2023-01-12T17:21:01.251Z,3.15
2023-01-12T17:24:02.941Z,3.20
2023-01-12T17:27:04.541Z,3.26
2023-01-12T17:30:06.846Z,3.33
2023-01-12T17:33:08.580Z,3.34
2023-01-12T17:36:10.628Z,3.26
2023-01-12T17:39:12.399Z,3.05
2023-01-12T17:42:14.476Z,2.88
2023-01-12T17:45:16.246Z,2.79
2023-01-12T17:48:18.111Z,2.75
2023-01-12T17:51:19.559Z,2.72
2023-01-12T17:54:21.185Z,2.71
2023-01-12T17:57:22.880Z,2.69
2023-01-12T18:00:24.491Z,2.65
2023-01-12T18:03:26.213Z,2.63
2023-01-12T18:06:27.899Z,2.64
2023-01-12T18:09:29.684Z,2.69
2023-01-12T18:12:31.150Z,2.71
2023-01-12T18:15:32.916Z,2.69
2023-01-12T18:18:34.477Z,2.79
2023-01-12T18:21:36.071Z,2.89
2023-01-12T18:24:37.768Z,2.89
2023-01-12T18:27:39.280Z,2.88
2023-01-12T18:30:41.110Z,2.77
2023-01-12T18:33:43.481Z,2.64
2023-01-12T18:36:45.619Z,2.58
2023-01-12T18:39:49.165Z,2.56
2023-01-12T18:42:50.699Z,2.54
2023-01-12T18:45:52.295Z,2.53
2023-01-12T18:48:53.857Z,2.55
2023-01-12T18:51:56.945Z,2.50
2023-01-12T18:54:58.680Z,2.50
2023-01-12T18:58:00.564Z,2.57
2023-01-12T19:01:02.821Z,2.64
2023-01-12T19:04:04.820Z,2.67
2023-01-12T19:07:07.547Z,2.72
2023-01-12T19:10:09.677Z,2.69
2023-01-12T19:13:11.583Z,2.69
2023-01-12T19:16:13.858Z,2.73
2023-01-12T19:19:15.513Z,2.71
2023-01-12T19:22:17.269Z,2.67
2023-01-12T19:25:19.955Z,2.68
2023-01-12T19:28:21.561Z,2.60
2023-01-12T19:31:23.268Z,2.47
2023-01-12T19:34:24.890Z,2.40
2023-01-12T19:37:26.531Z,2.42
2023-01-12T19:40:28.117Z,2.47
2023-01-12T19:43:29.664Z,2.57
2023-01-12T19:46:32.391Z,2.65
2023-01-12T19:49:34.122Z,2.70
2023-01-12T19:52:39.073Z,2.82
2023-01-12T19:55:41.566Z,2.81
2023-01-12T19:58:43.234Z,2.72
2023-01-12T20:01:44.934Z,2.65
2023-01-12T20:04:46.909Z,2.61
2023-01-12T20:07:52.930Z,2.54
2023-01-12T20:10:56.009Z,2.45
2023-01-12T20:13:57.894Z,2.42
2023-01-12T20:16:59.657Z,2.40
2023-01-12T20:20:02.678Z,2.37
2023-01-12T20:23:04.243Z,2.35
2023-01-12T20:26:09.228Z,2.29
2023-01-12T20:29:10.740Z,2.14
2023-01-12T20:32:12.562Z,2.04
2023-01-12T20:35:18.696Z,1.97
2023-01-12T20:38:20.659Z,1.94
2023-01-12T20:41:22.227Z,1.95
2023-01-12T20:44:23.829Z,1.91
2023-01-12T20:47:27.012Z,1.84
2023-01-12T20:50:28.566Z,1.79
2023-01-12T20:53:30.494Z,1.72
2023-01-12T20:56:32.176Z,1.76
2023-01-12T20:59:33.618Z,1.79
2023-01-12T21:02:35.147Z,1.92
2023-01-12T21:05:41.043Z,2.04
2023-01-12T21:08:44.375Z,2.10
2023-01-12T21:11:46.222Z,2.20
2023-01-12T21:14:48.085Z,2.37
2023-01-12T21:17:49.713Z,2.51
2023-01-12T21:20:51.420Z,2.50
2023-01-12T21:23:52.961Z,2.47
2023-01-12T21:26:55.319Z,2.46
2023-01-12T21:29:57.815Z,2.53
2023-01-12T21:32:59.358Z,2.59
2023-01-12T21:36:01.561Z,2.72
2023-01-12T21:39:03.647Z,2.77
2023-01-12T21:42:05.338Z,2.81
2023-01-12T21:45:07.077Z,2.80
2023-01-12T21:48:09.664Z,2.84
2023-01-12T21:51:13.838Z,2.92
2023-01-12T21:54:15.510Z,3.07
2023-01-12T21:57:17.136Z,3.28
2023-01-12T22:00:19.094Z,3.48
2023-01-12T22:03:24.387Z,3.62
2023-01-12T22:06:25.940Z,3.83
2023-01-12T22:09:27.708Z,3.94
2023-01-12T22:12:29.530Z,3.98
2023-01-12T22:15:31.678Z,3.84
2023-01-12T22:18:33.252Z,3.60
2023-01-12T22:21:35.075Z,3.50
2023-01-12T22:24:36.764Z,3.45
2023-01-12T22:27:38.523Z,3.41
2023-01-12T22:30:40.129Z,3.39
2023-01-12T22:33:50.836Z,3.41
2023-01-12T22:36:52.374Z,3.45
2023-01-12T22:39:54.640Z,3.46
2023-01-12T22:42:56.208Z,3.52
2023-01-12T22:45:57.951Z,3.60
2023-01-12T22:48:59.733Z,3.68
2023-01-12T22:52:02.712Z,3.73
2023-01-12T22:55:05.356Z,3.81
2023-01-12T22:58:06.912Z,3.87
2023-01-12T23:01:09.790Z,3.93
2023-01-12T23:04:11.486Z,3.95
2023-01-12T23:07:13.213Z,4.05
2023-01-12T23:10:15.401Z,4.13
2023-01-12T23:13:20.155Z,4.15
2023-01-12T23:16:22.016Z,4.20
2023-01-12T23:19:23.912Z,4.21
2023-01-12T23:22:25.657Z,4.24
2023-01-12T23:25:27.242Z,4.32
2023-01-12T23:28:29.221Z,4.42
2023-01-12T23:31:32.759Z,4.47
2023-01-12T23:34:54.380Z,4.46
2023-01-12T23:37:56.161Z,4.46
2023-01-12T23:40:57.963Z,4.48
2023-01-12T23:44:01.507Z,4.47
2023-01-12T23:47:03.245Z,4.49
2023-01-12T23:50:05.066Z,4.54
2023-01-12T23:53:06.747Z,4.58
2023-01-12T23:56:10.907Z,4.64
2023-01-12T23:59:12.724Z,4.68
